Jump to content


UNITED AIRLINES FLIGHT UA586 FLOWN ON 05-30-2017 BY CAPTAIN SUKDEO LALLMAN

Pilot StatsCaptain Sukdeo Lallman (LDP511) • 248.1 total hours • 114 total flights [View Logbook]
FLIGHT DETAILS
StatusReceived and approved on 2017-08-19 at 21:08:25
Origin AirportDenver Intl (KDEN) • Denver, Colorado, United States (5,430 feet MSL)
Filed Flight PlanFLIGHT PLANNER OFFLINE
Destination AirportSalt Lake City Intl (KSLC) • Salt Lake City, Utah, United States (4,226 feet MSL)
Alternate AirportNone Filed
AirlineUnited Airlines
AircraftBoeing 737-800 | Winglets (73H / B737-800)
FS Aircraft UsedBoeing 737-824NGX United Airlines (Merger) Winglets
Cruising AltitudeFL320
Distance Flown339 nautical miles
Passengers Onboard50 passengers (30.86% full)
DEPARTURE DETAILS
Time Out14:20:37
Taxi Data120,356 lbs total with 18,375 lbs of fuel onboard
Takeoff Data14:29:22 (9 minutes after leaving gate/ramp) • 119,686 lbs total • 7° pitch at 144 knots
Departure METARKDEN 192253Z 09004KT 10SM FEW100 SCT140 SCT220 33/M02 A2999 RMK AO2 SLP063 T03331017 $
ARRIVAL DETAILS
Landing Data15:28:05 • 113,279 lbs total • 6° pitch doing 111 knots at a rate of -366.02 feet/minute with 10,990 lbs of fuel onboard
Time In15:33:00 (5 minutes after landing)
Ramp Weight112,971 lbs total
Total Fuel Used7,385 lbs
Total Block Time01:12:10 (1.2 hours) while 14 minutes were spent on the ground
Arrival METARKSLC 200054Z 01008KT 10SM FEW095TCU BKN150 BKN210 34/02 A2994 RMK AO2 SLP078 VIRGA TCU OHD AND DSNT E T03390017
MISCELLANEOUS DETAILS
LiveDISPATCH Version4.8.3.1
FS Version
FSUIPC Version5.10
OS VersionWindows 7 32-bit
Screen Resolution1920 x 1080
Pilot's CommentsNo Comments Reported
FLIGHT MAP